sensor_id;sensor_type;location;lat;lon;timestamp;temperature;humidity
16871;DHT22;8552;48.120;-1.456;2024-01-30T00:00:09;10.70;99.90
16871;DHT22;8552;48.120;-1.456;2024-01-30T00:02:35;10.70;99.90
16871;DHT22;8552;48.120;-1.456;2024-01-30T00:05:00;10.90;99.90
16871;DHT22;8552;48.120;-1.456;2024-01-30T00:07:26;10.80;99.90
16871;DHT22;8552;48.120;-1.456;2024-01-30T00:09:52;10.80;99.90
16871;DHT22;8552;48.120;-1.456;2024-01-30T00:12:17;10.80;99.90
16871;DHT22;8552;48.120;-1.456;2024-01-30T00:14:43;10.90;99.90
16871;DHT22;8552;48.120;-1.456;2024-01-30T00:17:09;10.90;99.90
16871;DHT22;8552;48.120;-1.456;2024-01-30T00:19:35;11.10;99.90
16871;DHT22;8552;48.120;-1.456;2024-01-30T00:22:00;11.00;99.90
16871;DHT22;8552;48.120;-1.456;2024-01-30T00:24:26;11.10;99.90
16871;DHT22;8552;48.120;-1.456;2024-01-30T00:26:52;11.00;99.90
16871;DHT22;8552;48.120;-1.456;2024-01-30T00:29:18;10.80;99.90
16871;DHT22;8552;48.120;-1.456;2024-01-30T00:31:45;11.10;99.90
16871;DHT22;8552;48.120;-1.456;2024-01-30T00:34:11;11.00;99.90
16871;DHT22;8552;48.120;-1.456;2024-01-30T00:36:37;11.00;99.90
16871;DHT22;8552;48.120;-1.456;2024-01-30T00:39:03;11.00;99.90
16871;DHT22;8552;48.120;-1.456;2024-01-30T00:41:32;11.00;99.90
16871;DHT22;8552;48.120;-1.456;2024-01-30T00:43:57;10.90;99.90
16871;DHT22;8552;48.120;-1.456;2024-01-30T00:46:23;10.90;99.90
16871;DHT22;8552;48.120;-1.456;2024-01-30T00:48:49;10.90;99.90
16871;DHT22;8552;48.120;-1.456;2024-01-30T00:51:14;11.10;99.90
16871;DHT22;8552;48.120;-1.456;2024-01-30T00:53:40;10.90;99.90
16871;DHT22;8552;48.120;-1.456;2024-01-30T00:56:07;10.90;99.90
16871;DHT22;8552;48.120;-1.456;2024-01-30T00:58:33;11.10;99.90
16871;DHT22;8552;48.120;-1.456;2024-01-30T01:00:59;11.20;99.90
16871;DHT22;8552;48.120;-1.456;2024-01-30T01:03:25;11.30;99.90
16871;DHT22;8552;48.120;-1.456;2024-01-30T01:05:50;11.20;99.90
16871;DHT22;8552;48.120;-1.456;2024-01-30T01:08:16;11.00;99.90
16871;DHT22;8552;48.120;-1.456;2024-01-30T01:10:42;11.10;99.90
16871;DHT22;8552;48.120;-1.456;2024-01-30T01:13:07;11.10;99.90
16871;DHT22;8552;48.120;-1.456;2024-01-30T01:15:33;11.20;99.90
16871;DHT22;8552;48.120;-1.456;2024-01-30T01:17:59;11.30;99.90
16871;DHT22;8552;48.120;-1.456;2024-01-30T01:20:24;11.00;99.90
16871;DHT22;8552;48.120;-1.456;2024-01-30T01:22:50;11.00;99.90
16871;DHT22;8552;48.120;-1.456;2024-01-30T01:25:15;11.30;99.90
16871;DHT22;8552;48.120;-1.456;2024-01-30T01:27:41;11.30;99.90
16871;DHT22;8552;48.120;-1.456;2024-01-30T01:30:11;11.10;99.90
16871;DHT22;8552;48.120;-1.456;2024-01-30T01:32:39;11.20;99.90
16871;DHT22;8552;48.120;-1.456;2024-01-30T01:35:10;11.20;99.90
16871;DHT22;8552;48.120;-1.456;2024-01-30T01:37:36;11.30;99.90
16871;DHT22;8552;48.120;-1.456;2024-01-30T01:40:02;11.10;99.90
16871;DHT22;8552;48.120;-1.456;2024-01-30T01:42:28;11.20;99.90
16871;DHT22;8552;48.120;-1.456;2024-01-30T01:44:54;11.20;99.90
16871;DHT22;8552;48.120;-1.456;2024-01-30T01:47:20;11.20;99.90
16871;DHT22;8552;48.120;-1.456;2024-01-30T01:49:46;11.00;99.90
16871;DHT22;8552;48.120;-1.456;2024-01-30T01:52:12;11.10;99.90
16871;DHT22;8552;48.120;-1.456;2024-01-30T01:54:38;11.30;99.90
16871;DHT22;8552;48.120;-1.456;2024-01-30T01:57:04;11.20;99.90
16871;DHT22;8552;48.120;-1.456;2024-01-30T01:59:29;11.10;99.90
16871;DHT22;8552;48.120;-1.456;2024-01-30T02:01:55;11.20;99.90
16871;DHT22;8552;48.120;-1.456;2024-01-30T02:04:21;11.20;99.90
16871;DHT22;8552;48.120;-1.456;2024-01-30T02:06:47;11.10;99.90
16871;DHT22;8552;48.120;-1.456;2024-01-30T02:09:13;11.00;99.90
16871;DHT22;8552;48.120;-1.456;2024-01-30T02:11:39;11.30;99.90
16871;DHT22;8552;48.120;-1.456;2024-01-30T02:14:06;11.10;99.90
16871;DHT22;8552;48.120;-1.456;2024-01-30T02:16:32;11.20;99.90
16871;DHT22;8552;48.120;-1.456;2024-01-30T02:18:57;11.30;99.90
16871;DHT22;8552;48.120;-1.456;2024-01-30T02:21:23;11.10;99.90
16871;DHT22;8552;48.120;-1.456;2024-01-30T02:23:50;11.10;99.90
16871;DHT22;8552;48.120;-1.456;2024-01-30T02:26:17;11.20;99.90
16871;DHT22;8552;48.120;-1.456;2024-01-30T02:28:43;11.10;99.90
16871;DHT22;8552;48.120;-1.456;2024-01-30T02:31:09;11.10;99.90
16871;DHT22;8552;48.120;-1.456;2024-01-30T02:33:34;11.20;99.90
16871;DHT22;8552;48.120;-1.456;2024-01-30T02:36:00;11.30;99.90
16871;DHT22;8552;48.120;-1.456;2024-01-30T02:38:26;11.20;99.90
16871;DHT22;8552;48.120;-1.456;2024-01-30T02:40:52;11.20;99.90
16871;DHT22;8552;48.120;-1.456;2024-01-30T02:43:18;11.40;99.90
16871;DHT22;8552;48.120;-1.456;2024-01-30T02:45:44;11.20;99.90
16871;DHT22;8552;48.120;-1.456;2024-01-30T02:48:09;11.20;99.90
16871;DHT22;8552;48.120;-1.456;2024-01-30T02:50:35;11.20;99.90
16871;DHT22;8552;48.120;-1.456;2024-01-30T02:53:01;11.30;99.90
16871;DHT22;8552;48.120;-1.456;2024-01-30T02:55:27;11.40;99.90
16871;DHT22;8552;48.120;-1.456;2024-01-30T02:57:52;11.40;99.90
16871;DHT22;8552;48.120;-1.456;2024-01-30T03:00:19;11.30;99.90
16871;DHT22;8552;48.120;-1.456;2024-01-30T03:02:45;11.30;99.90
16871;DHT22;8552;48.120;-1.456;2024-01-30T03:05:11;11.40;99.90
16871;DHT22;8552;48.120;-1.456;2024-01-30T03:07:37;11.40;99.90
16871;DHT22;8552;48.120;-1.456;2024-01-30T03:10:04;11.20;99.90
16871;DHT22;8552;48.120;-1.456;2024-01-30T03:12:30;11.20;99.90
16871;DHT22;8552;48.120;-1.456;2024-01-30T03:14:56;11.20;99.90
16871;DHT22;8552;48.120;-1.456;2024-01-30T03:17:21;11.10;99.90
16871;DHT22;8552;48.120;-1.456;2024-01-30T03:19:47;11.10;99.90
16871;DHT22;8552;48.120;-1.456;2024-01-30T03:22:13;11.10;99.90
16871;DHT22;8552;48.120;-1.456;2024-01-30T03:24:40;11.00;99.90
16871;DHT22;8552;48.120;-1.456;2024-01-30T03:27:05;11.00;99.90
16871;DHT22;8552;48.120;-1.456;2024-01-30T03:29:31;11.00;99.90
16871;DHT22;8552;48.120;-1.456;2024-01-30T03:31:57;10.80;99.90
16871;DHT22;8552;48.120;-1.456;2024-01-30T03:34:23;10.70;99.90
16871;DHT22;8552;48.120;-1.456;2024-01-30T03:36:48;10.80;99.90
16871;DHT22;8552;48.120;-1.456;2024-01-30T03:39:14;10.70;99.90
16871;DHT22;8552;48.120;-1.456;2024-01-30T03:41:42;10.80;99.90
16871;DHT22;8552;48.120;-1.456;2024-01-30T03:44:08;10.80;99.90
16871;DHT22;8552;48.120;-1.456;2024-01-30T03:46:34;10.80;99.90
16871;DHT22;8552;48.120;-1.456;2024-01-30T03:49:00;10.70;99.90
16871;DHT22;8552;48.120;-1.456;2024-01-30T03:51:25;10.70;99.90
16871;DHT22;8552;48.120;-1.456;2024-01-30T03:53:51;10.70;99.90
16871;DHT22;8552;48.120;-1.456;2024-01-30T03:56:17;10.50;99.90
16871;DHT22;8552;48.120;-1.456;2024-01-30T03:58:42;10.60;99.90
16871;DHT22;8552;48.120;-1.456;2024-01-30T04:01:15;10.50;99.90
16871;DHT22;8552;48.120;-1.456;2024-01-30T04:03:42;10.60;99.90
16871;DHT22;8552;48.120;-1.456;2024-01-30T04:06:09;10.40;99.90
16871;DHT22;8552;48.120;-1.456;2024-01-30T04:08:35;10.60;99.90
16871;DHT22;8552;48.120;-1.456;2024-01-30T04:11:07;10.60;99.90
16871;DHT22;8552;48.120;-1.456;2024-01-30T04:13:33;10.50;99.90
16871;DHT22;8552;48.120;-1.456;2024-01-30T04:15:59;10.50;99.90
16871;DHT22;8552;48.120;-1.456;2024-01-30T04:18:27;10.50;99.90
16871;DHT22;8552;48.120;-1.456;2024-01-30T04:20:54;10.30;99.90
16871;DHT22;8552;48.120;-1.456;2024-01-30T04:23:19;10.50;99.90
16871;DHT22;8552;48.120;-1.456;2024-01-30T04:25:45;10.40;99.90
16871;DHT22;8552;48.120;-1.456;2024-01-30T04:28:11;10.40;99.90
16871;DHT22;8552;48.120;-1.456;2024-01-30T04:30:39;10.20;99.90
16871;DHT22;8552;48.120;-1.456;2024-01-30T04:33:05;10.30;99.90
16871;DHT22;8552;48.120;-1.456;2024-01-30T04:35:31;10.20;99.90
16871;DHT22;8552;48.120;-1.456;2024-01-30T04:37:56;10.30;99.90
16871;DHT22;8552;48.120;-1.456;2024-01-30T04:40:22;10.30;99.90
16871;DHT22;8552;48.120;-1.456;2024-01-30T04:42:48;10.10;99.90
16871;DHT22;8552;48.120;-1.456;2024-01-30T04:45:14;10.20;99.90
16871;DHT22;8552;48.120;-1.456;2024-01-30T04:47:39;10.20;99.90
16871;DHT22;8552;48.120;-1.456;2024-01-30T04:50:08;10.20;99.90
16871;DHT22;8552;48.120;-1.456;2024-01-30T04:52:35;10.00;99.90
16871;DHT22;8552;48.120;-1.456;2024-01-30T04:55:01;10.20;99.90
16871;DHT22;8552;48.120;-1.456;2024-01-30T04:57:26;10.20;99.90
16871;DHT22;8552;48.120;-1.456;2024-01-30T04:59:53;10.20;99.90
16871;DHT22;8552;48.120;-1.456;2024-01-30T05:02:19;10.10;99.90
16871;DHT22;8552;48.120;-1.456;2024-01-30T05:04:44;10.10;99.90
16871;DHT22;8552;48.120;-1.456;2024-01-30T05:07:10;10.00;99.90
16871;DHT22;8552;48.120;-1.456;2024-01-30T05:09:36;10.20;99.90
16871;DHT22;8552;48.120;-1.456;2024-01-30T05:12:02;10.10;99.90
16871;DHT22;8552;48.120;-1.456;2024-01-30T05:14:28;10.00;99.90
16871;DHT22;8552;48.120;-1.456;2024-01-30T05:16:54;10.00;99.90
16871;DHT22;8552;48.120;-1.456;2024-01-30T05:19:19;9.90;99.90
16871;DHT22;8552;48.120;-1.456;2024-01-30T05:21:46;10.00;99.90
16871;DHT22;8552;48.120;-1.456;2024-01-30T05:24:12;9.90;99.90
16871;DHT22;8552;48.120;-1.456;2024-01-30T05:26:38;9.70;99.90
16871;DHT22;8552;48.120;-1.456;2024-01-30T05:29:05;9.90;99.90
16871;DHT22;8552;48.120;-1.456;2024-01-30T05:31:30;9.90;99.90
16871;DHT22;8552;48.120;-1.456;2024-01-30T05:33:56;9.80;99.90
16871;DHT22;8552;48.120;-1.456;2024-01-30T05:36:22;9.70;99.90
16871;DHT22;8552;48.120;-1.456;2024-01-30T05:38:47;9.80;99.90
16871;DHT22;8552;48.120;-1.456;2024-01-30T05:41:13;9.70;99.90
16871;DHT22;8552;48.120;-1.456;2024-01-30T05:43:39;9.60;99.90
16871;DHT22;8552;48.120;-1.456;2024-01-30T05:46:05;9.60;99.90
16871;DHT22;8552;48.120;-1.456;2024-01-30T05:48:31;9.70;99.90
16871;DHT22;8552;48.120;-1.456;2024-01-30T05:50:57;9.50;99.90
16871;DHT22;8552;48.120;-1.456;2024-01-30T05:53:22;9.50;99.90
16871;DHT22;8552;48.120;-1.456;2024-01-30T05:55:48;9.40;99.90
16871;DHT22;8552;48.120;-1.456;2024-01-30T05:58:14;9.40;99.90
16871;DHT22;8552;48.120;-1.456;2024-01-30T06:00:40;9.40;99.90
16871;DHT22;8552;48.120;-1.456;2024-01-30T06:03:06;9.40;99.90
16871;DHT22;8552;48.120;-1.456;2024-01-30T06:05:32;9.30;99.90
16871;DHT22;8552;48.120;-1.456;2024-01-30T06:07:57;9.20;99.90
16871;DHT22;8552;48.120;-1.456;2024-01-30T06:10:23;9.30;99.90
16871;DHT22;8552;48.120;-1.456;2024-01-30T06:12:49;9.30;99.90
16871;DHT22;8552;48.120;-1.456;2024-01-30T06:15:14;9.10;99.90
16871;DHT22;8552;48.120;-1.456;2024-01-30T06:17:40;9.20;99.90
16871;DHT22;8552;48.120;-1.456;2024-01-30T06:20:10;9.30;99.90
16871;DHT22;8552;48.120;-1.456;2024-01-30T06:22:39;9.00;99.90
16871;DHT22;8552;48.120;-1.456;2024-01-30T06:25:13;8.90;99.90
16871;DHT22;8552;48.120;-1.456;2024-01-30T06:27:39;9.00;99.90
16871;DHT22;8552;48.120;-1.456;2024-01-30T06:30:05;9.00;99.90
16871;DHT22;8552;48.120;-1.456;2024-01-30T06:32:31;9.00;99.90
16871;DHT22;8552;48.120;-1.456;2024-01-30T06:35:00;8.90;99.90
16871;DHT22;8552;48.120;-1.456;2024-01-30T06:37:25;8.90;99.90
16871;DHT22;8552;48.120;-1.456;2024-01-30T06:39:51;8.80;99.90
16871;DHT22;8552;48.120;-1.456;2024-01-30T06:42:18;8.80;99.90
16871;DHT22;8552;48.120;-1.456;2024-01-30T06:44:44;8.90;99.90
16871;DHT22;8552;48.120;-1.456;2024-01-30T06:47:09;8.80;99.90
16871;DHT22;8552;48.120;-1.456;2024-01-30T06:49:35;8.70;99.90
16871;DHT22;8552;48.120;-1.456;2024-01-30T06:52:05;8.70;99.90
16871;DHT22;8552;48.120;-1.456;2024-01-30T06:54:31;8.80;99.90
16871;DHT22;8552;48.120;-1.456;2024-01-30T06:56:58;8.70;99.90
16871;DHT22;8552;48.120;-1.456;2024-01-30T06:59:24;8.80;99.90
16871;DHT22;8552;48.120;-1.456;2024-01-30T07:01:51;8.60;99.90
16871;DHT22;8552;48.120;-1.456;2024-01-30T07:04:17;8.80;99.90
16871;DHT22;8552;48.120;-1.456;2024-01-30T07:06:44;8.60;99.90
16871;DHT22;8552;48.120;-1.456;2024-01-30T07:09:09;8.50;99.90
16871;DHT22;8552;48.120;-1.456;2024-01-30T07:11:35;8.40;99.90
16871;DHT22;8552;48.120;-1.456;2024-01-30T07:14:01;8.40;99.90
16871;DHT22;8552;48.120;-1.456;2024-01-30T07:16:29;8.40;99.90
16871;DHT22;8552;48.120;-1.456;2024-01-30T07:18:55;8.40;99.90
16871;DHT22;8552;48.120;-1.456;2024-01-30T07:21:21;8.40;99.90
16871;DHT22;8552;48.120;-1.456;2024-01-30T07:23:50;8.30;99.90
16871;DHT22;8552;48.120;-1.456;2024-01-30T07:26:16;8.40;99.90
16871;DHT22;8552;48.120;-1.456;2024-01-30T07:28:47;8.00;99.90
16871;DHT22;8552;48.120;-1.456;2024-01-30T07:31:19;8.10;99.90
16871;DHT22;8552;48.120;-1.456;2024-01-30T07:33:51;8.10;99.90
16871;DHT22;8552;48.120;-1.456;2024-01-30T07:36:17;8.00;99.90
16871;DHT22;8552;48.120;-1.456;2024-01-30T07:38:42;7.90;99.90
16871;DHT22;8552;48.120;-1.456;2024-01-30T07:41:08;7.90;99.90
16871;DHT22;8552;48.120;-1.456;2024-01-30T07:43:34;7.70;99.90
16871;DHT22;8552;48.120;-1.456;2024-01-30T07:46:00;7.60;99.90
16871;DHT22;8552;48.120;-1.456;2024-01-30T07:48:27;7.60;99.90
16871;DHT22;8552;48.120;-1.456;2024-01-30T07:50:53;7.50;99.90
16871;DHT22;8552;48.120;-1.456;2024-01-30T07:53:18;7.60;99.90
16871;DHT22;8552;48.120;-1.456;2024-01-30T07:55:48;7.50;99.90
16871;DHT22;8552;48.120;-1.456;2024-01-30T07:58:14;7.50;99.90
16871;DHT22;8552;48.120;-1.456;2024-01-30T08:00:39;7.50;99.90
16871;DHT22;8552;48.120;-1.456;2024-01-30T08:03:05;7.60;99.90
16871;DHT22;8552;48.120;-1.456;2024-01-30T08:05:31;7.60;99.90
16871;DHT22;8552;48.120;-1.456;2024-01-30T08:07:57;7.60;99.90
16871;DHT22;8552;48.120;-1.456;2024-01-30T08:10:23;7.60;99.90
16871;DHT22;8552;48.120;-1.456;2024-01-30T08:12:49;7.60;99.90
16871;DHT22;8552;48.120;-1.456;2024-01-30T08:15:14;7.50;99.90
16871;DHT22;8552;48.120;-1.456;2024-01-30T08:17:40;7.60;99.90
16871;DHT22;8552;48.120;-1.456;2024-01-30T08:20:06;7.60;99.90
16871;DHT22;8552;48.120;-1.456;2024-01-30T08:22:33;7.70;99.90
16871;DHT22;8552;48.120;-1.456;2024-01-30T08:24:59;7.90;99.90
16871;DHT22;8552;48.120;-1.456;2024-01-30T08:27:25;7.80;99.90
16871;DHT22;8552;48.120;-1.456;2024-01-30T08:29:51;7.80;99.90
16871;DHT22;8552;48.120;-1.456;2024-01-30T08:32:16;7.80;99.90
16871;DHT22;8552;48.120;-1.456;2024-01-30T08:34:42;7.80;99.90
16871;DHT22;8552;48.120;-1.456;2024-01-30T08:37:08;7.80;99.90
16871;DHT22;8552;48.120;-1.456;2024-01-30T08:39:34;7.90;99.90
16871;DHT22;8552;48.120;-1.456;2024-01-30T08:41:59;7.90;99.90
16871;DHT22;8552;48.120;-1.456;2024-01-30T08:44:25;8.00;99.90
16871;DHT22;8552;48.120;-1.456;2024-01-30T08:46:51;8.00;99.90
16871;DHT22;8552;48.120;-1.456;2024-01-30T08:49:17;8.00;99.90
16871;DHT22;8552;48.120;-1.456;2024-01-30T08:51:42;8.10;99.90
16871;DHT22;8552;48.120;-1.456;2024-01-30T08:54:08;8.00;99.90
16871;DHT22;8552;48.120;-1.456;2024-01-30T08:56:34;8.10;99.90
16871;DHT22;8552;48.120;-1.456;2024-01-30T08:59:00;7.80;99.90
16871;DHT22;8552;48.120;-1.456;2024-01-30T09:01:25;7.90;99.90
16871;DHT22;8552;48.120;-1.456;2024-01-30T09:03:52;8.00;99.90
16871;DHT22;8552;48.120;-1.456;2024-01-30T09:06:17;8.00;99.90
16871;DHT22;8552;48.120;-1.456;2024-01-30T09:08:43;8.00;99.90
16871;DHT22;8552;48.120;-1.456;2024-01-30T09:11:11;7.80;99.90
16871;DHT22;8552;48.120;-1.456;2024-01-30T09:13:37;8.00;99.90
16871;DHT22;8552;48.120;-1.456;2024-01-30T09:16:03;7.90;99.90
16871;DHT22;8552;48.120;-1.456;2024-01-30T09:18:29;8.00;99.90
16871;DHT22;8552;48.120;-1.456;2024-01-30T09:20:54;8.00;99.90
16871;DHT22;8552;48.120;-1.456;2024-01-30T09:23:20;8.00;99.90
16871;DHT22;8552;48.120;-1.456;2024-01-30T09:25:46;8.00;99.90
16871;DHT22;8552;48.120;-1.456;2024-01-30T09:28:11;8.10;99.90
16871;DHT22;8552;48.120;-1.456;2024-01-30T09:30:37;7.90;99.90
16871;DHT22;8552;48.120;-1.456;2024-01-30T09:33:03;8.10;99.90
16871;DHT22;8552;48.120;-1.456;2024-01-30T09:35:28;8.10;99.90
16871;DHT22;8552;48.120;-1.456;2024-01-30T09:37:55;7.90;99.90
16871;DHT22;8552;48.120;-1.456;2024-01-30T09:40:22;8.10;99.90
16871;DHT22;8552;48.120;-1.456;2024-01-30T09:42:50;8.20;99.90
16871;DHT22;8552;48.120;-1.456;2024-01-30T09:45:17;8.20;99.90
16871;DHT22;8552;48.120;-1.456;2024-01-30T09:47:44;8.30;99.90
16871;DHT22;8552;48.120;-1.456;2024-01-30T09:50:15;8.30;99.90
16871;DHT22;8552;48.120;-1.456;2024-01-30T09:52:41;8.30;99.90
16871;DHT22;8552;48.120;-1.456;2024-01-30T09:55:09;8.40;99.90
16871;DHT22;8552;48.120;-1.456;2024-01-30T09:57:35;8.30;99.90
16871;DHT22;8552;48.120;-1.456;2024-01-30T10:00:01;8.40;99.90
16871;DHT22;8552;48.120;-1.456;2024-01-30T10:02:27;8.30;99.90
16871;DHT22;8552;48.120;-1.456;2024-01-30T10:04:53;8.40;99.90
16871;DHT22;8552;48.120;-1.456;2024-01-30T10:07:19;8.40;99.90
16871;DHT22;8552;48.120;-1.456;2024-01-30T10:09:45;8.60;99.90
16871;DHT22;8552;48.120;-1.456;2024-01-30T10:12:11;8.50;99.90
16871;DHT22;8552;48.120;-1.456;2024-01-30T10:14:40;8.60;99.90
16871;DHT22;8552;48.120;-1.456;2024-01-30T10:17:11;8.60;99.90
16871;DHT22;8552;48.120;-1.456;2024-01-30T10:19:39;8.60;99.90
16871;DHT22;8552;48.120;-1.456;2024-01-30T10:22:06;8.70;99.90
16871;DHT22;8552;48.120;-1.456;2024-01-30T10:24:33;8.80;99.90
16871;DHT22;8552;48.120;-1.456;2024-01-30T10:26:59;8.80;99.90
16871;DHT22;8552;48.120;-1.456;2024-01-30T10:29:24;8.80;99.90
16871;DHT22;8552;48.120;-1.456;2024-01-30T10:32:04;8.90;99.90
16871;DHT22;8552;48.120;-1.456;2024-01-30T10:34:30;8.80;99.90
16871;DHT22;8552;48.120;-1.456;2024-01-30T10:37:08;8.90;99.90
16871;DHT22;8552;48.120;-1.456;2024-01-30T10:39:44;9.00;99.90
16871;DHT22;8552;48.120;-1.456;2024-01-30T10:42:17;9.20;99.90
16871;DHT22;8552;48.120;-1.456;2024-01-30T10:47:30;9.40;99.90
16871;DHT22;8552;48.120;-1.456;2024-01-30T10:49:59;9.40;99.90
16871;DHT22;8552;48.120;-1.456;2024-01-30T10:52:26;9.60;99.90
16871;DHT22;8552;48.120;-1.456;2024-01-30T10:54:54;9.70;99.90
16871;DHT22;8552;48.120;-1.456;2024-01-30T10:57:23;9.70;99.90
16871;DHT22;8552;48.120;-1.456;2024-01-30T10:59:50;9.90;99.90
16871;DHT22;8552;48.120;-1.456;2024-01-30T11:02:17;10.00;99.90
16871;DHT22;8552;48.120;-1.456;2024-01-30T11:04:43;10.20;99.90
16871;DHT22;8552;48.120;-1.456;2024-01-30T11:07:18;10.30;99.90
16871;DHT22;8552;48.120;-1.456;2024-01-30T11:10:12;10.50;99.90
16871;DHT22;8552;48.120;-1.456;2024-01-30T11:12:40;10.60;99.90
16871;DHT22;8552;48.120;-1.456;2024-01-30T11:15:07;10.60;99.90
16871;DHT22;8552;48.120;-1.456;2024-01-30T11:20:15;11.00;99.90
16871;DHT22;8552;48.120;-1.456;2024-01-30T11:22:42;11.10;99.90
16871;DHT22;8552;48.120;-1.456;2024-01-30T11:25:12;11.20;99.90
16871;DHT22;8552;48.120;-1.456;2024-01-30T11:27:38;11.50;99.90
16871;DHT22;8552;48.120;-1.456;2024-01-30T11:30:05;11.60;99.90
16871;DHT22;8552;48.120;-1.456;2024-01-30T11:32:31;11.60;99.90
16871;DHT22;8552;48.120;-1.456;2024-01-30T11:34:56;11.80;99.90
16871;DHT22;8552;48.120;-1.456;2024-01-30T11:37:25;11.80;99.90
16871;DHT22;8552;48.120;-1.456;2024-01-30T11:39:56;11.90;99.90
16871;DHT22;8552;48.120;-1.456;2024-01-30T11:42:23;12.10;99.90
16871;DHT22;8552;48.120;-1.456;2024-01-30T11:44:50;12.10;99.90
16871;DHT22;8552;48.120;-1.456;2024-01-30T11:47:16;12.40;99.90
16871;DHT22;8552;48.120;-1.456;2024-01-30T11:49:43;12.60;99.90
16871;DHT22;8552;48.120;-1.456;2024-01-30T11:52:09;12.80;99.90
16871;DHT22;8552;48.120;-1.456;2024-01-30T11:54:35;13.00;99.90
16871;DHT22;8552;48.120;-1.456;2024-01-30T11:57:01;13.20;99.90
16871;DHT22;8552;48.120;-1.456;2024-01-30T11:59:27;13.40;99.90
16871;DHT22;8552;48.120;-1.456;2024-01-30T12:01:52;13.70;99.90
16871;DHT22;8552;48.120;-1.456;2024-01-30T12:04:18;13.90;99.90
16871;DHT22;8552;48.120;-1.456;2024-01-30T12:06:44;14.00;99.90
16871;DHT22;8552;48.120;-1.456;2024-01-30T12:09:10;13.90;99.90
16871;DHT22;8552;48.120;-1.456;2024-01-30T12:11:47;13.60;99.90
16871;DHT22;8552;48.120;-1.456;2024-01-30T12:14:14;13.40;99.90
16871;DHT22;8552;48.120;-1.456;2024-01-30T12:16:40;13.40;99.90
16871;DHT22;8552;48.120;-1.456;2024-01-30T12:19:09;13.30;99.90
16871;DHT22;8552;48.120;-1.456;2024-01-30T12:21:35;13.20;99.90
16871;DHT22;8552;48.120;-1.456;2024-01-30T12:24:01;13.00;99.90
16871;DHT22;8552;48.120;-1.456;2024-01-30T12:26:28;13.00;99.90
16871;DHT22;8552;48.120;-1.456;2024-01-30T12:28:56;12.80;99.90
16871;DHT22;8552;48.120;-1.456;2024-01-30T12:31:27;12.70;99.90
16871;DHT22;8552;48.120;-1.456;2024-01-30T12:33:54;12.60;99.90
16871;DHT22;8552;48.120;-1.456;2024-01-30T12:36:21;12.60;99.90
16871;DHT22;8552;48.120;-1.456;2024-01-30T12:38:47;12.70;99.90
16871;DHT22;8552;48.120;-1.456;2024-01-30T12:41:13;12.90;99.90
16871;DHT22;8552;48.120;-1.456;2024-01-30T12:43:39;13.20;99.90
16871;DHT22;8552;48.120;-1.456;2024-01-30T12:46:05;13.40;99.90
16871;DHT22;8552;48.120;-1.456;2024-01-30T12:48:31;13.50;99.90
16871;DHT22;8552;48.120;-1.456;2024-01-30T12:50:56;13.30;99.90
16871;DHT22;8552;48.120;-1.456;2024-01-30T12:53:22;13.20;99.90
16871;DHT22;8552;48.120;-1.456;2024-01-30T12:55:48;13.20;99.90
16871;DHT22;8552;48.120;-1.456;2024-01-30T12:58:15;13.10;99.90
16871;DHT22;8552;48.120;-1.456;2024-01-30T13:00:41;13.00;99.90
16871;DHT22;8552;48.120;-1.456;2024-01-30T13:03:10;12.90;99.90
16871;DHT22;8552;48.120;-1.456;2024-01-30T13:05:37;12.80;99.90
16871;DHT22;8552;48.120;-1.456;2024-01-30T13:08:02;12.80;99.90
16871;DHT22;8552;48.120;-1.456;2024-01-30T13:10:28;12.80;99.90
16871;DHT22;8552;48.120;-1.456;2024-01-30T13:12:54;12.80;99.90
16871;DHT22;8552;48.120;-1.456;2024-01-30T13:15:20;12.50;99.90
16871;DHT22;8552;48.120;-1.456;2024-01-30T13:17:48;12.40;99.90
16871;DHT22;8552;48.120;-1.456;2024-01-30T13:20:14;12.40;99.90
16871;DHT22;8552;48.120;-1.456;2024-01-30T13:22:47;12.50;99.90
16871;DHT22;8552;48.120;-1.456;2024-01-30T13:25:14;12.80;99.90
16871;DHT22;8552;48.120;-1.456;2024-01-30T13:27:40;13.20;99.90
16871;DHT22;8552;48.120;-1.456;2024-01-30T13:30:07;13.40;99.90
16871;DHT22;8552;48.120;-1.456;2024-01-30T13:32:34;13.80;99.90
16871;DHT22;8552;48.120;-1.456;2024-01-30T13:35:00;13.90;99.90
16871;DHT22;8552;48.120;-1.456;2024-01-30T13:37:25;13.80;99.90
16871;DHT22;8552;48.120;-1.456;2024-01-30T13:39:51;13.60;99.90
16871;DHT22;8552;48.120;-1.456;2024-01-30T13:42:17;13.30;99.90
16871;DHT22;8552;48.120;-1.456;2024-01-30T13:44:42;13.20;99.90
16871;DHT22;8552;48.120;-1.456;2024-01-30T13:47:11;13.20;99.90
16871;DHT22;8552;48.120;-1.456;2024-01-30T13:49:36;13.10;99.90
16871;DHT22;8552;48.120;-1.456;2024-01-30T13:52:02;13.40;99.90
16871;DHT22;8552;48.120;-1.456;2024-01-30T13:54:29;13.50;99.90
16871;DHT22;8552;48.120;-1.456;2024-01-30T13:56:56;13.30;99.90
16871;DHT22;8552;48.120;-1.456;2024-01-30T13:59:22;13.50;99.90
16871;DHT22;8552;48.120;-1.456;2024-01-30T14:01:50;13.50;99.90
16871;DHT22;8552;48.120;-1.456;2024-01-30T14:04:16;13.60;99.90
16871;DHT22;8552;48.120;-1.456;2024-01-30T14:06:42;13.80;99.90
16871;DHT22;8552;48.120;-1.456;2024-01-30T14:09:07;14.00;99.90
16871;DHT22;8552;48.120;-1.456;2024-01-30T14:11:40;14.20;99.90
16871;DHT22;8552;48.120;-1.456;2024-01-30T14:14:15;14.30;99.90
16871;DHT22;8552;48.120;-1.456;2024-01-30T14:16:47;14.10;99.90
16871;DHT22;8552;48.120;-1.456;2024-01-30T14:19:17;14.00;99.90
16871;DHT22;8552;48.120;-1.456;2024-01-30T14:21:44;13.90;99.90
16871;DHT22;8552;48.120;-1.456;2024-01-30T14:24:10;13.60;99.90
16871;DHT22;8552;48.120;-1.456;2024-01-30T14:26:36;13.60;99.90
16871;DHT22;8552;48.120;-1.456;2024-01-30T14:29:02;13.30;99.90
16871;DHT22;8552;48.120;-1.456;2024-01-30T14:31:27;13.10;99.90
16871;DHT22;8552;48.120;-1.456;2024-01-30T14:33:53;13.00;99.90
16871;DHT22;8552;48.120;-1.456;2024-01-30T14:36:20;13.00;99.90
16871;DHT22;8552;48.120;-1.456;2024-01-30T14:38:46;13.00;99.90
16871;DHT22;8552;48.120;-1.456;2024-01-30T14:41:11;13.10;99.90
16871;DHT22;8552;48.120;-1.456;2024-01-30T14:43:37;13.20;99.90
16871;DHT22;8552;48.120;-1.456;2024-01-30T14:46:03;13.20;99.90
16871;DHT22;8552;48.120;-1.456;2024-01-30T14:48:32;13.10;99.90
16871;DHT22;8552;48.120;-1.456;2024-01-30T14:50:57;13.00;99.90
16871;DHT22;8552;48.120;-1.456;2024-01-30T14:53:23;12.90;99.90
16871;DHT22;8552;48.120;-1.456;2024-01-30T14:55:49;12.80;99.90
16871;DHT22;8552;48.120;-1.456;2024-01-30T14:58:15;12.70;99.90
16871;DHT22;8552;48.120;-1.456;2024-01-30T15:00:40;12.70;99.90
16871;DHT22;8552;48.120;-1.456;2024-01-30T15:03:06;12.60;99.90
16871;DHT22;8552;48.120;-1.456;2024-01-30T15:05:32;12.70;99.90
16871;DHT22;8552;48.120;-1.456;2024-01-30T15:07:58;12.80;99.90
16871;DHT22;8552;48.120;-1.456;2024-01-30T15:10:23;13.10;99.90
16871;DHT22;8552;48.120;-1.456;2024-01-30T15:12:49;13.00;99.90
16871;DHT22;8552;48.120;-1.456;2024-01-30T15:15:15;12.80;99.90
16871;DHT22;8552;48.120;-1.456;2024-01-30T15:17:40;12.60;99.90
16871;DHT22;8552;48.120;-1.456;2024-01-30T15:20:07;12.40;99.90
16871;DHT22;8552;48.120;-1.456;2024-01-30T15:22:32;12.20;99.90
16871;DHT22;8552;48.120;-1.456;2024-01-30T15:24:58;12.10;99.90
16871;DHT22;8552;48.120;-1.456;2024-01-30T15:27:24;12.00;99.90
16871;DHT22;8552;48.120;-1.456;2024-01-30T15:29:50;11.90;99.90
16871;DHT22;8552;48.120;-1.456;2024-01-30T15:32:16;11.80;99.90
16871;DHT22;8552;48.120;-1.456;2024-01-30T15:34:42;11.80;99.90
16871;DHT22;8552;48.120;-1.456;2024-01-30T15:37:08;11.90;99.90